sensor_id;sensor_type;location;lat;lon;timestamp;temperature;humidity
67890;DHT22;54685;52.082;5.426;2022-07-17T00:02:21;14.20;92.60
67890;DHT22;54685;52.082;5.426;2022-07-17T00:04:49;14.10;92.80
67890;DHT22;54685;52.082;5.426;2022-07-17T00:07:15;14.10;93.30
67890;DHT22;54685;52.082;5.426;2022-07-17T00:09:42;14.10;93.00
67890;DHT22;54685;52.082;5.426;2022-07-17T00:12:10;14.10;92.80
67890;DHT22;54685;52.082;5.426;2022-07-17T00:14:37;14.10;93.00
67890;DHT22;54685;52.082;5.426;2022-07-17T00:17:04;14.00;92.90
67890;DHT22;54685;52.082;5.426;2022-07-17T00:19:32;14.00;93.00
67890;DHT22;54685;52.082;5.426;2022-07-17T00:21:59;13.80;93.60
67890;DHT22;54685;52.082;5.426;2022-07-17T00:24:26;13.90;93.60
67890;DHT22;54685;52.082;5.426;2022-07-17T00:26:53;13.90;93.70
67890;DHT22;54685;52.082;5.426;2022-07-17T00:29:20;13.90;93.50
67890;DHT22;54685;52.082;5.426;2022-07-17T00:31:47;13.90;93.80
67890;DHT22;54685;52.082;5.426;2022-07-17T00:34:14;13.80;93.70
67890;DHT22;54685;52.082;5.426;2022-07-17T00:36:41;13.80;93.90
67890;DHT22;54685;52.082;5.426;2022-07-17T00:39:08;13.80;93.50
67890;DHT22;54685;52.082;5.426;2022-07-17T00:41:35;13.80;93.60
67890;DHT22;54685;52.082;5.426;2022-07-17T00:44:06;13.80;93.40
67890;DHT22;54685;52.082;5.426;2022-07-17T00:46:34;13.80;93.60
67890;DHT22;54685;52.082;5.426;2022-07-17T00:49:02;13.80;93.70
67890;DHT22;54685;52.082;5.426;2022-07-17T00:51:29;13.80;93.70
67890;DHT22;54685;52.082;5.426;2022-07-17T00:53:58;13.70;93.60
67890;DHT22;54685;52.082;5.426;2022-07-17T00:56:31;13.70;93.80
67890;DHT22;54685;52.082;5.426;2022-07-17T00:59:00;13.80;93.30
67890;DHT22;54685;52.082;5.426;2022-07-17T01:01:29;13.90;92.30
67890;DHT22;54685;52.082;5.426;2022-07-17T01:03:57;14.10;91.40
67890;DHT22;54685;52.082;5.426;2022-07-17T01:06:24;14.20;91.00
67890;DHT22;54685;52.082;5.426;2022-07-17T01:08:51;14.00;91.70
67890;DHT22;54685;52.082;5.426;2022-07-17T01:11:18;13.90;92.10
67890;DHT22;54685;52.082;5.426;2022-07-17T01:13:46;13.80;92.30
67890;DHT22;54685;52.082;5.426;2022-07-17T01:16:13;13.70;92.60
67890;DHT22;54685;52.082;5.426;2022-07-17T01:18:41;13.60;93.00
67890;DHT22;54685;52.082;5.426;2022-07-17T01:21:08;13.50;93.40
67890;DHT22;54685;52.082;5.426;2022-07-17T01:23:35;13.40;94.10
67890;DHT22;54685;52.082;5.426;2022-07-17T01:26:02;13.20;94.70
67890;DHT22;54685;52.082;5.426;2022-07-17T01:28:29;13.20;94.90
67890;DHT22;54685;52.082;5.426;2022-07-17T01:30:57;13.20;94.60
67890;DHT22;54685;52.082;5.426;2022-07-17T01:33:26;13.20;95.00
67890;DHT22;54685;52.082;5.426;2022-07-17T01:35:53;13.10;94.70
67890;DHT22;54685;52.082;5.426;2022-07-17T01:38:20;13.10;94.90
67890;DHT22;54685;52.082;5.426;2022-07-17T01:40:47;13.10;94.90
67890;DHT22;54685;52.082;5.426;2022-07-17T01:43:14;13.00;94.80
67890;DHT22;54685;52.082;5.426;2022-07-17T01:45:41;13.00;94.80
67890;DHT22;54685;52.082;5.426;2022-07-17T01:48:08;13.00;95.00
67890;DHT22;54685;52.082;5.426;2022-07-17T01:50:35;13.00;94.60
67890;DHT22;54685;52.082;5.426;2022-07-17T01:53:02;13.00;95.20
67890;DHT22;54685;52.082;5.426;2022-07-17T01:55:29;12.90;95.00
67890;DHT22;54685;52.082;5.426;2022-07-17T01:57:56;12.90;94.70
67890;DHT22;54685;52.082;5.426;2022-07-17T02:00:22;12.80;95.10
67890;DHT22;54685;52.082;5.426;2022-07-17T02:02:52;12.90;95.20
67890;DHT22;54685;52.082;5.426;2022-07-17T02:05:18;12.80;95.20
67890;DHT22;54685;52.082;5.426;2022-07-17T02:07:46;12.70;95.50
67890;DHT22;54685;52.082;5.426;2022-07-17T02:10:13;12.70;95.50
67890;DHT22;54685;52.082;5.426;2022-07-17T02:12:44;12.70;95.50
67890;DHT22;54685;52.082;5.426;2022-07-17T02:15:12;12.60;96.20
67890;DHT22;54685;52.082;5.426;2022-07-17T02:17:40;12.60;95.90
67890;DHT22;54685;52.082;5.426;2022-07-17T02:20:10;12.80;95.10
67890;DHT22;54685;52.082;5.426;2022-07-17T02:22:37;12.80;95.00
67890;DHT22;54685;52.082;5.426;2022-07-17T02:25:06;12.90;94.40
67890;DHT22;54685;52.082;5.426;2022-07-17T02:27:33;12.90;94.40
67890;DHT22;54685;52.082;5.426;2022-07-17T02:30:30;12.90;94.50
67890;DHT22;54685;52.082;5.426;2022-07-17T02:32:56;12.80;95.20
67890;DHT22;54685;52.082;5.426;2022-07-17T02:35:23;12.80;95.30
67890;DHT22;54685;52.082;5.426;2022-07-17T02:37:50;12.80;95.10
67890;DHT22;54685;52.082;5.426;2022-07-17T02:40:17;12.70;95.50
67890;DHT22;54685;52.082;5.426;2022-07-17T02:42:43;12.60;95.20
67890;DHT22;54685;52.082;5.426;2022-07-17T02:45:10;12.60;95.50
67890;DHT22;54685;52.082;5.426;2022-07-17T02:47:37;12.50;95.50
67890;DHT22;54685;52.082;5.426;2022-07-17T02:50:06;12.40;96.10
67890;DHT22;54685;52.082;5.426;2022-07-17T02:52:34;12.40;96.20
67890;DHT22;54685;52.082;5.426;2022-07-17T02:55:01;12.40;96.10
67890;DHT22;54685;52.082;5.426;2022-07-17T02:57:28;12.30;96.30
67890;DHT22;54685;52.082;5.426;2022-07-17T02:59:54;12.20;96.50
67890;DHT22;54685;52.082;5.426;2022-07-17T03:02:21;12.10;96.90
67890;DHT22;54685;52.082;5.426;2022-07-17T03:04:48;12.10;96.90
67890;DHT22;54685;52.082;5.426;2022-07-17T03:07:15;12.10;97.10
67890;DHT22;54685;52.082;5.426;2022-07-17T03:09:42;12.10;96.50
67890;DHT22;54685;52.082;5.426;2022-07-17T03:12:09;12.00;96.60
67890;DHT22;54685;52.082;5.426;2022-07-17T03:14:36;12.00;97.00
67890;DHT22;54685;52.082;5.426;2022-07-17T03:17:03;12.00;96.90
67890;DHT22;54685;52.082;5.426;2022-07-17T03:19:30;12.00;96.80
67890;DHT22;54685;52.082;5.426;2022-07-17T03:21:57;12.00;96.90
67890;DHT22;54685;52.082;5.426;2022-07-17T03:24:24;12.00;96.90
67890;DHT22;54685;52.082;5.426;2022-07-17T03:26:51;11.90;96.90
67890;DHT22;54685;52.082;5.426;2022-07-17T03:29:17;11.80;97.10
67890;DHT22;54685;52.082;5.426;2022-07-17T03:31:45;11.80;97.10
67890;DHT22;54685;52.082;5.426;2022-07-17T03:34:13;11.90;96.80
67890;DHT22;54685;52.082;5.426;2022-07-17T03:36:40;11.90;97.00
67890;DHT22;54685;52.082;5.426;2022-07-17T03:39:07;11.80;97.50
67890;DHT22;54685;52.082;5.426;2022-07-17T03:41:34;11.90;97.40
67890;DHT22;54685;52.082;5.426;2022-07-17T03:44:01;11.90;97.30
67890;DHT22;54685;52.082;5.426;2022-07-17T03:46:27;11.90;97.40
67890;DHT22;54685;52.082;5.426;2022-07-17T03:48:54;11.80;97.40
67890;DHT22;54685;52.082;5.426;2022-07-17T03:51:22;11.80;97.40
67890;DHT22;54685;52.082;5.426;2022-07-17T03:53:48;11.80;97.30
67890;DHT22;54685;52.082;5.426;2022-07-17T03:56:15;11.90;97.30
67890;DHT22;54685;52.082;5.426;2022-07-17T03:58:42;11.90;96.90
67890;DHT22;54685;52.082;5.426;2022-07-17T04:01:09;11.90;97.00
67890;DHT22;54685;52.082;5.426;2022-07-17T04:03:35;11.90;97.00
67890;DHT22;54685;52.082;5.426;2022-07-17T04:06:02;12.00;96.90
67890;DHT22;54685;52.082;5.426;2022-07-17T04:08:29;12.00;97.20
67890;DHT22;54685;52.082;5.426;2022-07-17T04:10:56;12.00;96.70
67890;DHT22;54685;52.082;5.426;2022-07-17T04:13:23;12.00;96.50
67890;DHT22;54685;52.082;5.426;2022-07-17T04:15:50;11.90;96.80
67890;DHT22;54685;52.082;5.426;2022-07-17T04:18:24;11.90;96.90
67890;DHT22;54685;52.082;5.426;2022-07-17T04:20:53;11.80;97.30
67890;DHT22;54685;52.082;5.426;2022-07-17T04:23:20;11.80;97.60
67890;DHT22;54685;52.082;5.426;2022-07-17T04:25:47;11.80;97.50
67890;DHT22;54685;52.082;5.426;2022-07-17T04:28:14;11.70;98.00
67890;DHT22;54685;52.082;5.426;2022-07-17T04:30:42;11.60;98.40
67890;DHT22;54685;52.082;5.426;2022-07-17T04:33:09;11.50;98.80
67890;DHT22;54685;52.082;5.426;2022-07-17T04:35:36;11.60;98.70
67890;DHT22;54685;52.082;5.426;2022-07-17T04:38:04;11.60;98.90
67890;DHT22;54685;52.082;5.426;2022-07-17T04:40:33;11.50;99.10
67890;DHT22;54685;52.082;5.426;2022-07-17T04:43:01;11.50;98.70
67890;DHT22;54685;52.082;5.426;2022-07-17T04:45:28;11.60;98.70
67890;DHT22;54685;52.082;5.426;2022-07-17T04:47:55;11.60;98.70
67890;DHT22;54685;52.082;5.426;2022-07-17T04:50:22;11.60;98.80
67890;DHT22;54685;52.082;5.426;2022-07-17T04:52:49;11.60;99.30
67890;DHT22;54685;52.082;5.426;2022-07-17T04:55:16;11.70;99.00
67890;DHT22;54685;52.082;5.426;2022-07-17T04:57:43;11.70;99.50
67890;DHT22;54685;52.082;5.426;2022-07-17T05:00:11;11.80;98.80
67890;DHT22;54685;52.082;5.426;2022-07-17T05:02:38;11.80;98.60
67890;DHT22;54685;52.082;5.426;2022-07-17T05:05:05;11.90;98.80
67890;DHT22;54685;52.082;5.426;2022-07-17T05:07:32;12.00;98.80
67890;DHT22;54685;52.082;5.426;2022-07-17T05:09:59;12.00;99.00
67890;DHT22;54685;52.082;5.426;2022-07-17T05:12:26;12.10;98.50
67890;DHT22;54685;52.082;5.426;2022-07-17T05:14:53;12.20;97.90
67890;DHT22;54685;52.082;5.426;2022-07-17T05:17:20;12.30;98.80
67890;DHT22;54685;52.082;5.426;2022-07-17T05:19:47;12.40;97.90
67890;DHT22;54685;52.082;5.426;2022-07-17T05:22:14;12.50;96.90
67890;DHT22;54685;52.082;5.426;2022-07-17T05:24:41;12.60;96.60
67890;DHT22;54685;52.082;5.426;2022-07-17T05:27:08;12.70;95.90
67890;DHT22;54685;52.082;5.426;2022-07-17T05:29:35;12.80;95.30
67890;DHT22;54685;52.082;5.426;2022-07-17T05:32:02;12.90;95.10
67890;DHT22;54685;52.082;5.426;2022-07-17T05:34:29;13.00;94.30
67890;DHT22;54685;52.082;5.426;2022-07-17T05:36:56;13.10;94.50
67890;DHT22;54685;52.082;5.426;2022-07-17T05:39:22;13.20;94.30
67890;DHT22;54685;52.082;5.426;2022-07-17T05:41:49;13.20;94.90
67890;DHT22;54685;52.082;5.426;2022-07-17T05:44:16;13.40;95.10
67890;DHT22;54685;52.082;5.426;2022-07-17T05:46:43;13.50;94.80
67890;DHT22;54685;52.082;5.426;2022-07-17T05:49:10;13.60;94.10
67890;DHT22;54685;52.082;5.426;2022-07-17T05:51:37;13.60;94.10
67890;DHT22;54685;52.082;5.426;2022-07-17T05:54:03;13.80;94.10
67890;DHT22;54685;52.082;5.426;2022-07-17T05:56:30;13.80;94.40
67890;DHT22;54685;52.082;5.426;2022-07-17T05:58:57;13.90;94.10
67890;DHT22;54685;52.082;5.426;2022-07-17T06:01:24;14.10;93.90
67890;DHT22;54685;52.082;5.426;2022-07-17T06:03:51;14.10;93.70
67890;DHT22;54685;52.082;5.426;2022-07-17T06:06:18;14.20;93.30
67890;DHT22;54685;52.082;5.426;2022-07-17T06:08:44;14.30;93.30
67890;DHT22;54685;52.082;5.426;2022-07-17T06:11:11;14.40;93.00
67890;DHT22;54685;52.082;5.426;2022-07-17T06:13:38;14.50;92.50
67890;DHT22;54685;52.082;5.426;2022-07-17T06:16:05;14.60;92.20
67890;DHT22;54685;52.082;5.426;2022-07-17T06:18:32;14.60;92.00
67890;DHT22;54685;52.082;5.426;2022-07-17T06:20:58;14.70;91.90
67890;DHT22;54685;52.082;5.426;2022-07-17T06:23:25;14.70;91.90
67890;DHT22;54685;52.082;5.426;2022-07-17T06:25:52;14.80;91.20
67890;DHT22;54685;52.082;5.426;2022-07-17T06:28:19;14.90;90.70
67890;DHT22;54685;52.082;5.426;2022-07-17T06:30:45;14.90;90.60
67890;DHT22;54685;52.082;5.426;2022-07-17T06:33:12;15.00;90.60
67890;DHT22;54685;52.082;5.426;2022-07-17T06:35:39;15.00;89.30
67890;DHT22;54685;52.082;5.426;2022-07-17T06:38:11;15.00;89.30
67890;DHT22;54685;52.082;5.426;2022-07-17T06:40:38;15.10;90.40
67890;DHT22;54685;52.082;5.426;2022-07-17T06:43:05;15.10;89.60
67890;DHT22;54685;52.082;5.426;2022-07-17T06:45:33;15.20;89.30
67890;DHT22;54685;52.082;5.426;2022-07-17T06:48:00;15.30;87.20
67890;DHT22;54685;52.082;5.426;2022-07-17T06:50:28;15.40;86.70
67890;DHT22;54685;52.082;5.426;2022-07-17T06:52:54;15.40;86.50
67890;DHT22;54685;52.082;5.426;2022-07-17T06:55:21;15.40;85.30
67890;DHT22;54685;52.082;5.426;2022-07-17T06:57:48;15.50;84.80
67890;DHT22;54685;52.082;5.426;2022-07-17T07:00:15;15.50;83.90
67890;DHT22;54685;52.082;5.426;2022-07-17T07:02:45;15.50;84.80
67890;DHT22;54685;52.082;5.426;2022-07-17T07:05:12;15.60;84.60
67890;DHT22;54685;52.082;5.426;2022-07-17T07:07:38;15.60;84.40
67890;DHT22;54685;52.082;5.426;2022-07-17T07:10:06;15.70;83.90
67890;DHT22;54685;52.082;5.426;2022-07-17T07:12:33;15.80;82.20
67890;DHT22;54685;52.082;5.426;2022-07-17T07:14:59;15.80;83.90
67890;DHT22;54685;52.082;5.426;2022-07-17T07:17:26;15.90;84.10
67890;DHT22;54685;52.082;5.426;2022-07-17T07:19:53;15.90;84.00
67890;DHT22;54685;52.082;5.426;2022-07-17T07:22:20;16.10;83.60
67890;DHT22;54685;52.082;5.426;2022-07-17T07:24:46;16.10;82.80
67890;DHT22;54685;52.082;5.426;2022-07-17T07:27:13;16.20;80.40
67890;DHT22;54685;52.082;5.426;2022-07-17T07:29:40;16.20;80.70
67890;DHT22;54685;52.082;5.426;2022-07-17T07:32:07;16.50;77.70
67890;DHT22;54685;52.082;5.426;2022-07-17T07:34:34;16.40;78.70
67890;DHT22;54685;52.082;5.426;2022-07-17T07:37:00;16.50;78.90
67890;DHT22;54685;52.082;5.426;2022-07-17T07:39:27;16.50;77.10
67890;DHT22;54685;52.082;5.426;2022-07-17T07:41:54;16.60;78.30
67890;DHT22;54685;52.082;5.426;2022-07-17T07:44:21;16.60;77.00
67890;DHT22;54685;52.082;5.426;2022-07-17T07:46:57;16.70;75.80
67890;DHT22;54685;52.082;5.426;2022-07-17T07:49:24;16.70;75.70
67890;DHT22;54685;52.082;5.426;2022-07-17T07:51:51;16.80;75.50
67890;DHT22;54685;52.082;5.426;2022-07-17T07:54:29;16.90;75.00
67890;DHT22;54685;52.082;5.426;2022-07-17T07:56:56;16.90;77.10
67890;DHT22;54685;52.082;5.426;2022-07-17T07:59:23;17.00;78.50
67890;DHT22;54685;52.082;5.426;2022-07-17T08:01:49;17.10;78.30
67890;DHT22;54685;52.082;5.426;2022-07-17T08:04:16;17.20;78.50
67890;DHT22;54685;52.082;5.426;2022-07-17T08:06:43;17.20;78.30
67890;DHT22;54685;52.082;5.426;2022-07-17T08:09:10;17.20;78.30
67890;DHT22;54685;52.082;5.426;2022-07-17T08:11:36;17.30;79.00
67890;DHT22;54685;52.082;5.426;2022-07-17T08:14:03;17.40;78.80
67890;DHT22;54685;52.082;5.426;2022-07-17T08:16:40;17.50;77.90
67890;DHT22;54685;52.082;5.426;2022-07-17T08:19:07;17.60;78.20
67890;DHT22;54685;52.082;5.426;2022-07-17T08:21:34;17.80;77.00
67890;DHT22;54685;52.082;5.426;2022-07-17T08:24:01;17.90;76.50
67890;DHT22;54685;52.082;5.426;2022-07-17T08:26:28;17.90;76.30
67890;DHT22;54685;52.082;5.426;2022-07-17T08:28:55;18.10;76.00
67890;DHT22;54685;52.082;5.426;2022-07-17T08:31:22;18.20;75.10
67890;DHT22;54685;52.082;5.426;2022-07-17T08:33:49;18.30;75.20
67890;DHT22;54685;52.082;5.426;2022-07-17T08:36:16;18.60;73.80
67890;DHT22;54685;52.082;5.426;2022-07-17T08:38:42;18.60;70.30
67890;DHT22;54685;52.082;5.426;2022-07-17T08:41:09;18.70;70.20
67890;DHT22;54685;52.082;5.426;2022-07-17T08:43:43;18.70;69.00
67890;DHT22;54685;52.082;5.426;2022-07-17T08:46:10;18.80;69.30
67890;DHT22;54685;52.082;5.426;2022-07-17T08:48:43;18.90;65.00
67890;DHT22;54685;52.082;5.426;2022-07-17T08:51:11;19.00;65.80
67890;DHT22;54685;52.082;5.426;2022-07-17T08:53:38;19.20;64.80
67890;DHT22;54685;52.082;5.426;2022-07-17T08:56:06;19.30;64.80
67890;DHT22;54685;52.082;5.426;2022-07-17T08:58:34;19.40;65.00
67890;DHT22;54685;52.082;5.426;2022-07-17T09:01:01;19.50;65.70
67890;DHT22;54685;52.082;5.426;2022-07-17T09:03:28;19.60;64.80
67890;DHT22;54685;52.082;5.426;2022-07-17T09:05:58;19.80;64.90
67890;DHT22;54685;52.082;5.426;2022-07-17T09:08:25;20.00;65.40
67890;DHT22;54685;52.082;5.426;2022-07-17T09:10:53;20.20;63.80
67890;DHT22;54685;52.082;5.426;2022-07-17T09:13:30;20.30;62.90
67890;DHT22;54685;52.082;5.426;2022-07-17T09:16:07;20.50;61.90
67890;DHT22;54685;52.082;5.426;2022-07-17T09:18:47;20.60;60.70
67890;DHT22;54685;52.082;5.426;2022-07-17T09:21:21;20.90;58.20
67890;DHT22;54685;52.082;5.426;2022-07-17T09:24:02;21.20;57.60
67890;DHT22;54685;52.082;5.426;2022-07-17T09:26:30;21.20;54.50
67890;DHT22;54685;52.082;5.426;2022-07-17T09:28:59;21.30;54.30
67890;DHT22;54685;52.082;5.426;2022-07-17T09:31:31;21.50;56.50
67890;DHT22;54685;52.082;5.426;2022-07-17T09:33:59;21.80;55.20
67890;DHT22;54685;52.082;5.426;2022-07-17T09:36:26;22.10;53.40
67890;DHT22;54685;52.082;5.426;2022-07-17T09:38:55;22.30;54.20
67890;DHT22;54685;52.082;5.426;2022-07-17T09:41:23;22.60;54.00
67890;DHT22;54685;52.082;5.426;2022-07-17T09:43:59;22.80;53.90
67890;DHT22;54685;52.082;5.426;2022-07-17T09:46:30;23.00;51.20
67890;DHT22;54685;52.082;5.426;2022-07-17T09:49:00;23.10;50.60
67890;DHT22;54685;52.082;5.426;2022-07-17T09:51:29;23.30;49.80
67890;DHT22;54685;52.082;5.426;2022-07-17T09:54:00;23.60;49.70
67890;DHT22;54685;52.082;5.426;2022-07-17T09:56:30;23.80;48.30
67890;DHT22;54685;52.082;5.426;2022-07-17T09:59:03;23.90;48.10
67890;DHT22;54685;52.082;5.426;2022-07-17T10:01:32;24.00;46.90
67890;DHT22;54685;52.082;5.426;2022-07-17T10:04:01;24.20;47.70
67890;DHT22;54685;52.082;5.426;2022-07-17T10:06:28;24.40;47.90
67890;DHT22;54685;52.082;5.426;2022-07-17T10:08:55;24.60;47.00
67890;DHT22;54685;52.082;5.426;2022-07-17T10:11:24;24.70;46.10
67890;DHT22;54685;52.082;5.426;2022-07-17T10:13:54;24.90;45.70
67890;DHT22;54685;52.082;5.426;2022-07-17T10:16:26;25.20;44.40
67890;DHT22;54685;52.082;5.426;2022-07-17T10:18:54;25.30;43.00
67890;DHT22;54685;52.082;5.426;2022-07-17T10:21:25;25.20;42.90
67890;DHT22;54685;52.082;5.426;2022-07-17T10:26:48;25.30;44.10
67890;DHT22;54685;52.082;5.426;2022-07-17T10:32:00;25.60;41.90
67890;DHT22;54685;52.082;5.426;2022-07-17T10:34:39;25.60;43.00
67890;DHT22;54685;52.082;5.426;2022-07-17T10:37:22;25.80;43.10
67890;DHT22;54685;52.082;5.426;2022-07-17T10:45:14;26.30;41.30
67890;DHT22;54685;52.082;5.426;2022-07-17T10:48:04;26.50;41.20
67890;DHT22;54685;52.082;5.426;2022-07-17T10:50:42;26.70;39.50
67890;DHT22;54685;52.082;5.426;2022-07-17T10:53:10;26.40;40.40
67890;DHT22;54685;52.082;5.426;2022-07-17T10:55:43;26.70;40.70
67890;DHT22;54685;52.082;5.426;2022-07-17T10:58:21;27.10;39.70
67890;DHT22;54685;52.082;5.426;2022-07-17T11:01:14;27.10;39.40
67890;DHT22;54685;52.082;5.426;2022-07-17T11:06:24;27.10;37.80
67890;DHT22;54685;52.082;5.426;2022-07-17T11:08:54;27.10;38.70
67890;DHT22;54685;52.082;5.426;2022-07-17T11:11:35;27.00;40.20
67890;DHT22;54685;52.082;5.426;2022-07-17T11:14:15;26.80;39.30
67890;DHT22;54685;52.082;5.426;2022-07-17T11:16:49;27.00;39.40
67890;DHT22;54685;52.082;5.426;2022-07-17T11:19:26;27.20;38.90
67890;DHT22;54685;52.082;5.426;2022-07-17T11:21:54;27.30;38.10
67890;DHT22;54685;52.082;5.426;2022-07-17T11:24:21;27.20;38.90
67890;DHT22;54685;52.082;5.426;2022-07-17T11:26:52;27.30;39.30
67890;DHT22;54685;52.082;5.426;2022-07-17T11:29:19;27.50;38.70
67890;DHT22;54685;52.082;5.426;2022-07-17T11:31:46;27.30;38.60
67890;DHT22;54685;52.082;5.426;2022-07-17T11:34:13;27.60;39.30
67890;DHT22;54685;52.082;5.426;2022-07-17T11:36:42;27.50;37.80
67890;DHT22;54685;52.082;5.426;2022-07-17T11:39:11;27.50;38.80
67890;DHT22;54685;52.082;5.426;2022-07-17T11:41:41;27.60;38.50
67890;DHT22;54685;52.082;5.426;2022-07-17T11:44:12;27.50;37.90
67890;DHT22;54685;52.082;5.426;2022-07-17T11:46:42;27.70;37.30
67890;DHT22;54685;52.082;5.426;2022-07-17T11:49:09;27.50;37.80
67890;DHT22;54685;52.082;5.426;2022-07-17T11:51:43;27.70;38.40
67890;DHT22;54685;52.082;5.426;2022-07-17T11:54:14;27.60;36.30
67890;DHT22;54685;52.082;5.426;2022-07-17T11:56:43;27.70;37.50
67890;DHT22;54685;52.082;5.426;2022-07-17T11:59:10;27.80;37.00
67890;DHT22;54685;52.082;5.426;2022-07-17T12:01:43;28.00;36.50
67890;DHT22;54685;52.082;5.426;2022-07-17T12:04:14;28.20;36.30
67890;DHT22;54685;52.082;5.426;2022-07-17T12:06:44;28.10;34.70
67890;DHT22;54685;52.082;5.426;2022-07-17T12:09:11;28.00;35.50
67890;DHT22;54685;52.082;5.426;2022-07-17T12:12:05;28.10;36.20
67890;DHT22;54685;52.082;5.426;2022-07-17T12:14:32;27.90;35.60
67890;DHT22;54685;52.082;5.426;2022-07-17T12:17:03;27.90;35.60
67890;DHT22;54685;52.082;5.426;2022-07-17T12:19:30;27.60;35.90
67890;DHT22;54685;52.082;5.426;2022-07-17T12:22:03;27.60;36.60
67890;DHT22;54685;52.082;5.426;2022-07-17T12:24:32;27.40;37.00
67890;DHT22;54685;52.082;5.426;2022-07-17T12:27:03;27.20;37.10
67890;DHT22;54685;52.082;5.426;2022-07-17T12:29:31;27.30;37.30
67890;DHT22;54685;52.082;5.426;2022-07-17T12:34:38;27.30;36.80
67890;DHT22;54685;52.082;5.426;2022-07-17T12:37:16;27.10;35.60
67890;DHT22;54685;52.082;5.426;2022-07-17T12:39:44;27.10;37.10
67890;DHT22;54685;52.082;5.426;2022-07-17T12:42:11;27.30;36.60
67890;DHT22;54685;52.082;5.426;2022-07-17T12:44:38;27.30;36.40
67890;DHT22;54685;52.082;5.426;2022-07-17T12:47:05;27.40;36.20
67890;DHT22;54685;52.082;5.426;2022-07-17T12:49:32;27.60;36.40
67890;DHT22;54685;52.082;5.426;2022-07-17T12:51:59;27.60;35.00
67890;DHT22;54685;52.082;5.426;2022-07-17T12:54:26;27.80;36.50
67890;DHT22;54685;52.082;5.426;2022-07-17T12:56:53;27.70;34.90
67890;DHT22;54685;52.082;5.426;2022-07-17T12:59:20;27.50;35.40
67890;DHT22;54685;52.082;5.426;2022-07-17T13:01:48;27.40;37.10
67890;DHT22;54685;52.082;5.426;2022-07-17T13:04:15;27.60;35.90
67890;DHT22;54685;52.082;5.426;2022-07-17T13:06:42;27.50;33.50
67890;DHT22;54685;52.082;5.426;2022-07-17T13:09:11;27.30;34.80
67890;DHT22;54685;52.082;5.426;2022-07-17T13:11:43;27.00;34.80
67890;DHT22;54685;52.082;5.426;2022-07-17T13:14:11;27.10;35.20
67890;DHT22;54685;52.082;5.426;2022-07-17T13:16:39;27.30;35.50
67890;DHT22;54685;52.082;5.426;2022-07-17T13:19:07;27.30;35.60
67890;DHT22;54685;52.082;5.426;2022-07-17T13:21:34;27.30;35.60
67890;DHT22;54685;52.082;5.426;2022-07-17T13:24:02;27.50;35.60
67890;DHT22;54685;52.082;5.426;2022-07-17T13:26:30;27.50;35.60
67890;DHT22;54685;52.082;5.426;2022-07-17T13:28:58;27.60;35.10
67890;DHT22;54685;52.082;5.426;2022-07-17T13:31:24;27.50;35.50
67890;DHT22;54685;52.082;5.426;2022-07-17T13:33:51;27.40;35.40
67890;DHT22;54685;52.082;5.426;2022-07-17T13:36:18;27.20;35.40
67890;DHT22;54685;52.082;5.426;2022-07-17T13:38:45;27.30;36.20
67890;DHT22;54685;52.082;5.426;2022-07-17T13:41:12;27.40;35.70
67890;DHT22;54685;52.082;5.426;2022-07-17T13:43:39;27.30;36.20
67890;DHT22;54685;52.082;5.426;2022-07-17T13:46:06;27.40;36.80
67890;DHT22;54685;52.082;5.426;2022-07-17T13:48:33;27.50;37.10
67890;DHT22;54685;52.082;5.426;2022-07-17T13:51:00;27.40;35.90
67890;DHT22;54685;52.082;5.426;2022-07-17T13:53:26;27.50;33.20
67890;DHT22;54685;52.082;5.426;2022-07-17T13:55:53;27.30;32.30
67890;DHT22;54685;52.082;5.426;2022-07-17T13:58:21;27.20;33.00
67890;DHT22;54685;52.082;5.426;2022-07-17T14:00:48;27.30;34.40
67890;DHT22;54685;52.082;5.426;2022-07-17T14:03:14;27.40;34.80
67890;DHT22;54685;52.082;5.426;2022-07-17T14:05:41;27.30;35.00
67890;DHT22;54685;52.082;5.426;2022-07-17T14:08:08;27.30;34.90
67890;DHT22;54685;52.082;5.426;2022-07-17T14:10:35;27.20;36.40
67890;DHT22;54685;52.082;5.426;2022-07-17T14:13:02;27.30;35.50
67890;DHT22;54685;52.082;5.426;2022-07-17T14:15:28;27.40;37.10
67890;DHT22;54685;52.082;5.426;2022-07-17T14:17:56;27.40;35.40
67890;DHT22;54685;52.082;5.426;2022-07-17T14:20:22;27.50;35.60
67890;DHT22;54685;52.082;5.426;2022-07-17T14:22:49;27.40;35.10
67890;DHT22;54685;52.082;5.426;2022-07-17T14:25:16;27.40;35.20
67890;DHT22;54685;52.082;5.426;2022-07-17T14:27:43;27.40;34.20
67890;DHT22;54685;52.082;5.426;2022-07-17T14:30:10;27.30;33.60
67890;DHT22;54685;52.082;5.426;2022-07-17T14:32:38;27.40;34.30
67890;DHT22;54685;52.082;5.426;2022-07-17T14:35:05;27.30;34.20
67890;DHT22;54685;52.082;5.426;2022-07-17T14:37:32;27.40;34.80
67890;DHT22;54685;52.082;5.426;2022-07-17T14:40:07;27.30;34.60
67890;DHT22;54685;52.082;5.426;2022-07-17T14:42:34;27.30;34.80
67890;DHT22;54685;52.082;5.426;2022-07-17T14:45:01;27.30;34.50
67890;DHT22;54685;52.082;5.426;2022-07-17T14:47:29;27.30;34.90
67890;DHT22;54685;52.082;5.426;2022-07-17T14:49:56;27.20;35.00
67890;DHT22;54685;52.082;5.426;2022-07-17T14:52:23;27.10;35.10
67890;DHT22;54685;52.082;5.426;2022-07-17T14:54:49;27.10;35.70
67890;DHT22;54685;52.082;5.426;2022-07-17T14:57:16;27.10;35.10
67890;DHT22;54685;52.082;5.426;2022-07-17T14:59:43;26.90;34.80
67890;DHT22;54685;52.082;5.426;2022-07-17T15:02:10;26.90;35.60
67890;DHT22;54685;52.082;5.426;2022-07-17T15:04:37;26.80;34.90
67890;DHT22;54685;52.082;5.426;2022-07-17T15:07:04;26.80;35.20
67890;DHT22;54685;52.082;5.426;2022-07-17T15:09:31;26.80;35.60
67890;DHT22;54685;52.082;5.426;2022-07-17T15:11:58;26.90;36.30
67890;DHT22;54685;52.082;5.426;2022-07-17T15:14:25;26.90;35.90
67890;DHT22;54685;52.082;5.426;2022-07-17T15:16:52;27.00;36.40
67890;DHT22;54685;52.082;5.426;2022-07-17T15:19:19;27.10;36.70
67890;DHT22;54685;52.082;5.426;2022-07-17T15:21:46;27.10;36.30
67890;DHT22;54685;52.082;5.426;2022-07-17T15:24:19;27.10;36.20
67890;DHT22;54685;52.082;5.426;2022-07-17T15:26:47;27.10;35.60
67890;DHT22;54685;52.082;5.426;2022-07-17T15:29:17;27.00;35.90
67890;DHT22;54685;52.082;5.426;2022-07-17T15:31:44;27.00;36.20
67890;DHT22;54685;52.082;5.426;2022-07-17T15:34:11;26.90;36.50
67890;DHT22;54685;52.082;5.426;2022-07-17T15:36:39;27.00;36.50
67890;DHT22;54685;52.082;5.426;2022-07-17T15:39:06;27.00;37.30
67890;DHT22;54685;52.082;5.426;2022-07-17T15:41:34;26.90;37.40
67890;DHT22;54685;52.082;5.426;2022-07-17T15:44:01;26.90;37.50
67890;DHT22;54685;52.082;5.426;2022-07-17T15:46:28;27.00;38.00
67890;DHT22;54685;52.082;5.426;2022-07-17T15:48:56;27.00;37.20
67890;DHT22;54685;52.082;5.426;2022-07-17T15:51:24;27.00;36.10
67890;DHT22;54685;52.082;5.426;2022-07-17T15:53:55;26.90;36.40